Susan Ann — WCY5700 — position and weather

sailwx.info

Track history (hours):
 
Tides and Currents Weather Stations Pressure Air Temp Water Temp Dewpoint Dewpoint Depression Visibility Wind Speed Wind Dir Waves Ship Positions

Susan Ann

Owner: CROSS SOUND FERRY SERVICES INC, NEW LONDON, CT. More information available from US FCC via Universal Licensing System and Coast Guard Vessel Documentation Center.

Last reported at 2015-Mar-29 15:33 UTC. Time now 2015-Mar-29 16:12 UTC.
Position N 41°21' W 072°06'.

Length 72 m; draft 4 m.

Type: Passenger vessel. MMSI: 367354350.

Date/timePositionNaut miles runAvg speedWind from/ knotsBaromVisibWave heightAir tempDewpointWater temp
2015-Mar-29 15:33N 41°21' W 072°06'8 8.5
2015-Mar-29 14:33N 41°13' W 072°10'6 5.6
2015-Mar-29 13:33N 41°09' W 072°14'1111.2
2015-Mar-29 12:34N 41°18' W 072°05'3 3.4
2015-Mar-29 11:33N 41°21' W 072°06'0 0.0
2015-Mar-29 00:29N 41°21' W 072°06'9 9.6
2015-Mar-28 23:33N 41°13' W 072°10'5 5.1
2015-Mar-28 22:34N 41°09' W 072°14'9 8.8
2015-Mar-28 21:34N 41°16' W 072°07'5 5.5
2015-Mar-28 20:33N 41°21' W 072°06'10 9.6
2015-Mar-28 19:33N 41°13' W 072°11'4 4.3
2015-Mar-28 18:33N 41°09' W 072°14'8 8.0
2015-Mar-28 17:33N 41°15' W 072°08'6 6.2
2015-Mar-28 16:34N 41°21' W 072°06'9 9.0
2015-Mar-28 15:33N 41°13' W 072°11'5 4.8
2015-Mar-28 14:33N 41°09' W 072°14'8 8.1
2015-Mar-28 13:33N 41°16' W 072°08'6 5.9
2015-Mar-28 12:33N 41°21' W 072°06'10 9.8
2015-Mar-28 11:33N 41°13' W 072°11'4 4.1
2015-Mar-28 10:33N 41°09' W 072°14'0 0.0
2015-Mar-28 00:14N 41°09' W 072°14'811.7
2015-Mar-27 23:34N 41°15' W 072°08'6 6.2
2015-Mar-27 22:34N 41°21' W 072°06'9 8.8
2015-Mar-27 21:33N 41°13' W 072°10'5 5.1
2015-Mar-27 20:34N 41°09' W 072°14'8 7.8
2015-Mar-27 19:33N 41°15' W 072°08'6 6.2
2015-Mar-27 18:33N 41°21' W 072°06'9 8.6
2015-Mar-27 17:33N 41°13' W 072°10'5 5.3
2015-Mar-27 16:33N 41°09' W 072°14'8 8.2
2015-Mar-27 15:33N 41°16' W 072°08'6 5.9
2015-Mar-27 14:33N 41°21' W 072°06'9 9.0
2015-Mar-27 13:34N 41°13' W 072°10'5 5.0
2015-Mar-27 12:33N 41°09' W 072°14'8 8.4
2015-Mar-27 11:33N 41°16' W 072°07'6 5.7
2015-Mar-27 10:34N 41°21' W 072°06'0 0.0
2015-Mar-27 09:33N 41°21' W 072°06'0 0.0
2015-Mar-26 14:33N 41°21' W 072°06'1 1.4
2015-Mar-26 13:34N 41°23' W 072°06'0 0.0
2015-Mar-26 12:33N 41°23' W 072°06'  
2015-Mar-23 20:11N 41°23' W 072°06'0 0.0
2015-Mar-23 19:33N 41°23' W 072°06'0 0.0
2015-Mar-23 18:33N 41°23' W 072°06'0 0.0
2015-Mar-23 17:33N 41°23' W 072°06'0 0.2
2015-Mar-23 16:33N 41°23' W 072°06'0 0.2
2015-Mar-23 15:33N 41°23' W 072°06'0 0.0
2015-Mar-23 14:33N 41°23' W 072°06'0 0.0
2015-Mar-23 13:33N 41°23' W 072°06'0 0.0
2015-Mar-23 12:33N 41°23' W 072°06'0 0.0
2015-Mar-23 11:33N 41°23' W 072°06'0 0.0
2015-Mar-23 10:33N 41°23' W 072°06'0 0.0
2015-Mar-21 11:33N 41°23' W 072°06'0 0.0
2015-Mar-21 10:33N 41°23' W 072°06'0 0.0
2015-Mar-21 09:33N 41°23' W 072°06'  
Track history (hours):
 
Tides and Currents Weather Stations Pressure Air Temp Water Temp Dewpoint Dewpoint Depression Visibility Wind Speed Wind Dir Waves Ship Positions

Susan Ann

Owner: CROSS SOUND FERRY SERVICES INC, NEW LONDON, CT. More information available from US FCC via Universal Licensing System and Coast Guard Vessel Documentation Center.

Last reported at 2015-Mar-29 15:33 UTC. Time now 2015-Mar-29 16:12 UTC.
Position N 41°21' W 072°06'.

Length 72 m; draft 4 m.

Type: Passenger vessel. MMSI: 367354350.

Date/timePositionNaut miles runAvg speedWind from/ knotsBaromVisibWave heightAir tempDewpointWater temp
2015-Mar-29 15:33N 41°21' W 072°06'8 8.5
2015-Mar-29 14:33N 41°13' W 072°10'6 5.6
2015-Mar-29 13:33N 41°09' W 072°14'1111.2
2015-Mar-29 12:34N 41°18' W 072°05'3 3.4
2015-Mar-29 11:33N 41°21' W 072°06'0 0.0
2015-Mar-29 00:29N 41°21' W 072°06'9 9.6
2015-Mar-28 23:33N 41°13' W 072°10'5 5.1
2015-Mar-28 22:34N 41°09' W 072°14'9 8.8
2015-Mar-28 21:34N 41°16' W 072°07'5 5.5
2015-Mar-28 20:33N 41°21' W 072°06'10 9.6
2015-Mar-28 19:33N 41°13' W 072°11'4 4.3
2015-Mar-28 18:33N 41°09' W 072°14'8 8.0
2015-Mar-28 17:33N 41°15' W 072°08'6 6.2
2015-Mar-28 16:34N 41°21' W 072°06'9 9.0
2015-Mar-28 15:33N 41°13' W 072°11'5 4.8
2015-Mar-28 14:33N 41°09' W 072°14'8 8.1
2015-Mar-28 13:33N 41°16' W 072°08'6 5.9
2015-Mar-28 12:33N 41°21' W 072°06'10 9.8
2015-Mar-28 11:33N 41°13' W 072°11'4 4.1
2015-Mar-28 10:33N 41°09' W 072°14'0 0.0
2015-Mar-28 00:14N 41°09' W 072°14'811.7
2015-Mar-27 23:34N 41°15' W 072°08'6 6.2
2015-Mar-27 22:34N 41°21' W 072°06'9 8.8
2015-Mar-27 21:33N 41°13' W 072°10'5 5.1
2015-Mar-27 20:34N 41°09' W 072°14'8 7.8
2015-Mar-27 19:33N 41°15' W 072°08'6 6.2
2015-Mar-27 18:33N 41°21' W 072°06'9 8.6
2015-Mar-27 17:33N 41°13' W 072°10'5 5.3
2015-Mar-27 16:33N 41°09' W 072°14'8 8.2
2015-Mar-27 15:33N 41°16' W 072°08'6 5.9
2015-Mar-27 14:33N 41°21' W 072°06'9 9.0
2015-Mar-27 13:34N 41°13' W 072°10'5 5.0
2015-Mar-27 12:33N 41°09' W 072°14'8 8.4
2015-Mar-27 11:33N 41°16' W 072°07'6 5.7
2015-Mar-27 10:34N 41°21' W 072°06'0 0.0
2015-Mar-27 09:33N 41°21' W 072°06'0 0.0
2015-Mar-26 14:33N 41°21' W 072°06'1 1.4
2015-Mar-26 13:34N 41°23' W 072°06'0 0.0
2015-Mar-26 12:33N 41°23' W 072°06'  
2015-Mar-23 20:11N 41°23' W 072°06'0 0.0
2015-Mar-23 19:33N 41°23' W 072°06'0 0.0
2015-Mar-23 18:33N 41°23' W 072°06'0 0.0
2015-Mar-23 17:33N 41°23' W 072°06'0 0.2
2015-Mar-23 16:33N 41°23' W 072°06'0 0.2
2015-Mar-23 15:33N 41°23' W 072°06'0 0.0
2015-Mar-23 14:33N 41°23' W 072°06'0 0.0
2015-Mar-23 13:33N 41°23' W 072°06'0 0.0
2015-Mar-23 12:33N 41°23' W 072°06'0 0.0
2015-Mar-23 11:33N 41°23' W 072°06'0 0.0
2015-Mar-23 10:33N 41°23' W 072°06'0 0.0
2015-Mar-21 11:33N 41°23' W 072°06'0 0.0
2015-Mar-21 10:33N 41°23' W 072°06'0 0.0
2015-Mar-21 09:33N 41°23' W 072°06'  

Dump ship's entire track history